sensor_id;sensor_type;location;lat;lon;timestamp;temperature;humidity
23671;DHT22;12012;51.998;7.614;2024-01-30T00:01:22;6.20;1.00
23671;DHT22;12012;51.998;7.614;2024-01-30T00:03:47;6.10;1.00
23671;DHT22;12012;51.998;7.614;2024-01-30T00:06:13;6.10;1.00
23671;DHT22;12012;51.998;7.614;2024-01-30T00:08:38;6.10;1.00
23671;DHT22;12012;51.998;7.614;2024-01-30T00:11:04;6.10;1.00
23671;DHT22;12012;51.998;7.614;2024-01-30T00:13:29;6.10;99.90
23671;DHT22;12012;51.998;7.614;2024-01-30T00:15:55;6.10;99.90
23671;DHT22;12012;51.998;7.614;2024-01-30T00:18:20;6.00;99.90
23671;DHT22;12012;51.998;7.614;2024-01-30T00:20:46;6.00;99.90
23671;DHT22;12012;51.998;7.614;2024-01-30T00:23:12;6.00;99.90
23671;DHT22;12012;51.998;7.614;2024-01-30T00:25:38;5.90;99.90
23671;DHT22;12012;51.998;7.614;2024-01-30T00:28:04;5.80;99.90
23671;DHT22;12012;51.998;7.614;2024-01-30T00:30:29;5.80;99.90
23671;DHT22;12012;51.998;7.614;2024-01-30T00:32:55;5.70;99.90
23671;DHT22;12012;51.998;7.614;2024-01-30T00:35:20;5.60;99.90
23671;DHT22;12012;51.998;7.614;2024-01-30T00:37:48;5.50;99.90
23671;DHT22;12012;51.998;7.614;2024-01-30T00:40:13;5.50;99.90
23671;DHT22;12012;51.998;7.614;2024-01-30T00:42:42;5.40;99.90
23671;DHT22;12012;51.998;7.614;2024-01-30T00:45:13;5.30;99.90
23671;DHT22;12012;51.998;7.614;2024-01-30T00:47:38;5.30;99.90
23671;DHT22;12012;51.998;7.614;2024-01-30T00:50:04;5.30;99.90
23671;DHT22;12012;51.998;7.614;2024-01-30T00:52:30;5.30;99.90
23671;DHT22;12012;51.998;7.614;2024-01-30T00:54:55;5.20;1.00
23671;DHT22;12012;51.998;7.614;2024-01-30T00:57:21;5.20;1.00
23671;DHT22;12012;51.998;7.614;2024-01-30T00:59:46;5.20;1.00
23671;DHT22;12012;51.998;7.614;2024-01-30T01:02:12;5.30;1.00
23671;DHT22;12012;51.998;7.614;2024-01-30T01:04:39;5.30;1.00
23671;DHT22;12012;51.998;7.614;2024-01-30T01:07:04;5.30;1.00
23671;DHT22;12012;51.998;7.614;2024-01-30T01:09:30;5.40;1.00
23671;DHT22;12012;51.998;7.614;2024-01-30T01:11:55;5.50;1.00
23671;DHT22;12012;51.998;7.614;2024-01-30T01:14:21;5.50;1.00
23671;DHT22;12012;51.998;7.614;2024-01-30T01:16:46;5.50;1.00
23671;DHT22;12012;51.998;7.614;2024-01-30T01:19:12;5.60;1.00
23671;DHT22;12012;51.998;7.614;2024-01-30T01:21:37;5.60;1.00
23671;DHT22;12012;51.998;7.614;2024-01-30T01:24:03;5.70;1.00
23671;DHT22;12012;51.998;7.614;2024-01-30T01:26:29;5.70;1.00
23671;DHT22;12012;51.998;7.614;2024-01-30T01:28:54;5.70;1.00
23671;DHT22;12012;51.998;7.614;2024-01-30T01:31:20;5.80;1.00
23671;DHT22;12012;51.998;7.614;2024-01-30T01:33:50;5.80;16.20
23671;DHT22;12012;51.998;7.614;2024-01-30T01:36:15;5.90;1.00
23671;DHT22;12012;51.998;7.614;2024-01-30T01:38:41;5.90;1.00
23671;DHT22;12012;51.998;7.614;2024-01-30T01:41:06;5.90;1.00
23671;DHT22;12012;51.998;7.614;2024-01-30T01:43:32;5.90;1.00
23671;DHT22;12012;51.998;7.614;2024-01-30T01:45:58;5.90;1.00
23671;DHT22;12012;51.998;7.614;2024-01-30T01:48:23;5.90;1.00
23671;DHT22;12012;51.998;7.614;2024-01-30T01:50:49;5.90;1.00
23671;DHT22;12012;51.998;7.614;2024-01-30T01:53:15;5.90;1.00
23671;DHT22;12012;51.998;7.614;2024-01-30T01:55:41;5.90;1.00
23671;DHT22;12012;51.998;7.614;2024-01-30T01:58:07;5.90;1.00
23671;DHT22;12012;51.998;7.614;2024-01-30T02:00:35;6.90;1.00
23671;DHT22;12012;51.998;7.614;2024-01-30T02:03:02;6.00;1.00
23671;DHT22;12012;51.998;7.614;2024-01-30T02:05:29;6.00;1.00
23671;DHT22;12012;51.998;7.614;2024-01-30T02:07:56;6.00;1.00
23671;DHT22;12012;51.998;7.614;2024-01-30T02:10:21;6.00;99.90
23671;DHT22;12012;51.998;7.614;2024-01-30T02:12:48;6.10;99.90
23671;DHT22;12012;51.998;7.614;2024-01-30T02:15:14;6.10;93.90
23671;DHT22;12012;51.998;7.614;2024-01-30T02:17:39;6.10;99.90
23671;DHT22;12012;51.998;7.614;2024-01-30T02:20:05;6.20;99.90
23671;DHT22;12012;51.998;7.614;2024-01-30T02:22:33;6.20;99.90
23671;DHT22;12012;51.998;7.614;2024-01-30T02:24:59;6.20;99.90
23671;DHT22;12012;51.998;7.614;2024-01-30T02:27:25;6.30;99.90
23671;DHT22;12012;51.998;7.614;2024-01-30T02:29:50;6.30;99.90
23671;DHT22;12012;51.998;7.614;2024-01-30T02:32:16;6.30;1.00
23671;DHT22;12012;51.998;7.614;2024-01-30T02:34:41;6.40;99.90
23671;DHT22;12012;51.998;7.614;2024-01-30T02:37:07;6.40;99.90
23671;DHT22;12012;51.998;7.614;2024-01-30T02:39:32;6.40;99.90
23671;DHT22;12012;51.998;7.614;2024-01-30T02:41:58;6.40;99.90
23671;DHT22;12012;51.998;7.614;2024-01-30T02:44:23;6.40;99.90
23671;DHT22;12012;51.998;7.614;2024-01-30T02:46:49;6.40;99.90
23671;DHT22;12012;51.998;7.614;2024-01-30T02:49:15;6.40;99.90
23671;DHT22;12012;51.998;7.614;2024-01-30T02:51:40;6.40;99.90
23671;DHT22;12012;51.998;7.614;2024-01-30T02:54:06;6.40;99.90
23671;DHT22;12012;51.998;7.614;2024-01-30T02:56:31;6.40;99.90
23671;DHT22;12012;51.998;7.614;2024-01-30T02:58:57;6.40;99.90
23671;DHT22;12012;51.998;7.614;2024-01-30T03:01:22;6.40;99.90
23671;DHT22;12012;51.998;7.614;2024-01-30T03:03:50;6.30;1.00
23671;DHT22;12012;51.998;7.614;2024-01-30T03:06:15;6.30;99.90
23671;DHT22;12012;51.998;7.614;2024-01-30T03:08:42;6.30;99.90
23671;DHT22;12012;51.998;7.614;2024-01-30T03:11:08;6.30;99.90
23671;DHT22;12012;51.998;7.614;2024-01-30T03:13:34;6.30;99.90
23671;DHT22;12012;51.998;7.614;2024-01-30T03:15:59;6.30;53.00
23671;DHT22;12012;51.998;7.614;2024-01-30T03:18:25;6.30;41.10
23671;DHT22;12012;51.998;7.614;2024-01-30T03:20:50;6.20;56.20
23671;DHT22;12012;51.998;7.614;2024-01-30T03:23:16;6.20;53.00
23671;DHT22;12012;51.998;7.614;2024-01-30T03:25:41;6.20;30.00
23671;DHT22;12012;51.998;7.614;2024-01-30T03:28:07;6.20;34.10
23671;DHT22;12012;51.998;7.614;2024-01-30T03:30:34;6.10;76.70
23671;DHT22;12012;51.998;7.614;2024-01-30T03:32:59;6.10;55.60
23671;DHT22;12012;51.998;7.614;2024-01-30T03:35:25;8.70;64.70
23671;DHT22;12012;51.998;7.614;2024-01-30T03:37:50;6.10;41.00
23671;DHT22;12012;51.998;7.614;2024-01-30T03:40:16;6.10;84.70
23671;DHT22;12012;51.998;7.614;2024-01-30T03:42:42;6.00;39.40
23671;DHT22;12012;51.998;7.614;2024-01-30T03:45:07;6.00;24.60
23671;DHT22;12012;51.998;7.614;2024-01-30T03:47:33;6.00;8.70
23671;DHT22;12012;51.998;7.614;2024-01-30T03:49:59;5.90;6.60
23671;DHT22;12012;51.998;7.614;2024-01-30T03:52:24;5.90;36.50
23671;DHT22;12012;51.998;7.614;2024-01-30T03:54:50;5.90;13.90
23671;DHT22;12012;51.998;7.614;2024-01-30T03:57:15;5.90;26.00
23671;DHT22;12012;51.998;7.614;2024-01-30T03:59:44;5.80;29.70
23671;DHT22;12012;51.998;7.614;2024-01-30T04:02:10;5.80;99.80
23671;DHT22;12012;51.998;7.614;2024-01-30T04:04:37;5.80;99.90
23671;DHT22;12012;51.998;7.614;2024-01-30T04:07:02;5.80;99.90
23671;DHT22;12012;51.998;7.614;2024-01-30T04:09:28;5.80;98.00
23671;DHT22;12012;51.998;7.614;2024-01-30T04:11:54;5.70;65.10
23671;DHT22;12012;51.998;7.614;2024-01-30T04:14:19;5.70;99.90
23671;DHT22;12012;51.998;7.614;2024-01-30T04:16:45;5.70;99.90
23671;DHT22;12012;51.998;7.614;2024-01-30T04:19:10;5.80;99.90
23671;DHT22;12012;51.998;7.614;2024-01-30T04:21:36;5.80;99.90
23671;DHT22;12012;51.998;7.614;2024-01-30T04:24:01;5.80;99.90
23671;DHT22;12012;51.998;7.614;2024-01-30T04:26:27;5.80;99.90
23671;DHT22;12012;51.998;7.614;2024-01-30T04:28:53;5.80;99.90
23671;DHT22;12012;51.998;7.614;2024-01-30T04:31:18;5.80;99.90
23671;DHT22;12012;51.998;7.614;2024-01-30T04:33:44;5.80;99.90
23671;DHT22;12012;51.998;7.614;2024-01-30T04:36:09;5.80;99.90
23671;DHT22;12012;51.998;7.614;2024-01-30T04:38:40;5.80;99.90
23671;DHT22;12012;51.998;7.614;2024-01-30T04:41:07;5.80;1.00
23671;DHT22;12012;51.998;7.614;2024-01-30T04:43:33;5.80;1.00
23671;DHT22;12012;51.998;7.614;2024-01-30T04:45:58;5.90;1.00
23671;DHT22;12012;51.998;7.614;2024-01-30T04:48:24;5.90;99.90
23671;DHT22;12012;51.998;7.614;2024-01-30T04:50:49;5.90;1.00
23671;DHT22;12012;51.998;7.614;2024-01-30T04:53:15;5.90;1.00
23671;DHT22;12012;51.998;7.614;2024-01-30T04:55:40;5.90;99.90
23671;DHT22;12012;51.998;7.614;2024-01-30T04:58:06;5.90;99.90
23671;DHT22;12012;51.998;7.614;2024-01-30T05:00:31;5.90;99.90
23671;DHT22;12012;51.998;7.614;2024-01-30T05:02:57;5.90;99.90
23671;DHT22;12012;51.998;7.614;2024-01-30T05:05:22;5.90;99.90
23671;DHT22;12012;51.998;7.614;2024-01-30T05:07:48;5.90;99.90
23671;DHT22;12012;51.998;7.614;2024-01-30T05:10:14;5.90;99.90
23671;DHT22;12012;51.998;7.614;2024-01-30T05:12:40;5.90;99.90
23671;DHT22;12012;51.998;7.614;2024-01-30T05:15:06;5.80;99.90
23671;DHT22;12012;51.998;7.614;2024-01-30T05:17:31;5.90;99.90
23671;DHT22;12012;51.998;7.614;2024-01-30T05:19:57;5.90;99.90
23671;DHT22;12012;51.998;7.614;2024-01-30T05:22:23;5.90;99.90
23671;DHT22;12012;51.998;7.614;2024-01-30T05:24:48;5.90;99.90
23671;DHT22;12012;51.998;7.614;2024-01-30T05:27:14;5.80;99.90
23671;DHT22;12012;51.998;7.614;2024-01-30T05:29:40;5.80;99.90
23671;DHT22;12012;51.998;7.614;2024-01-30T05:32:06;5.80;99.90
23671;DHT22;12012;51.998;7.614;2024-01-30T05:34:32;5.80;99.90
23671;DHT22;12012;51.998;7.614;2024-01-30T05:36:58;5.80;99.90
23671;DHT22;12012;51.998;7.614;2024-01-30T05:39:23;5.80;99.90
23671;DHT22;12012;51.998;7.614;2024-01-30T05:41:49;5.80;99.90
23671;DHT22;12012;51.998;7.614;2024-01-30T05:44:15;5.80;99.90
23671;DHT22;12012;51.998;7.614;2024-01-30T05:46:40;5.90;1.00
23671;DHT22;12012;51.998;7.614;2024-01-30T05:49:06;5.90;99.90
23671;DHT22;12012;51.998;7.614;2024-01-30T05:51:31;5.90;1.00
23671;DHT22;12012;51.998;7.614;2024-01-30T05:53:57;6.00;1.00
23671;DHT22;12012;51.998;7.614;2024-01-30T05:56:22;5.90;99.90
23671;DHT22;12012;51.998;7.614;2024-01-30T05:58:48;6.00;99.90
23671;DHT22;12012;51.998;7.614;2024-01-30T06:01:15;6.00;99.90
23671;DHT22;12012;51.998;7.614;2024-01-30T06:03:41;6.00;99.90
23671;DHT22;12012;51.998;7.614;2024-01-30T06:06:08;6.00;1.00
23671;DHT22;12012;51.998;7.614;2024-01-30T06:08:34;6.00;99.90
23671;DHT22;12012;51.998;7.614;2024-01-30T06:11:00;6.00;99.90
23671;DHT22;12012;51.998;7.614;2024-01-30T06:13:26;6.00;1.00
23671;DHT22;12012;51.998;7.614;2024-01-30T06:15:52;6.00;99.90
23671;DHT22;12012;51.998;7.614;2024-01-30T06:18:17;6.00;99.90
23671;DHT22;12012;51.998;7.614;2024-01-30T06:20:43;6.10;99.90
23671;DHT22;12012;51.998;7.614;2024-01-30T06:23:08;6.00;99.90
23671;DHT22;12012;51.998;7.614;2024-01-30T06:25:34;6.10;99.90
23671;DHT22;12012;51.998;7.614;2024-01-30T06:28:00;6.10;99.90
23671;DHT22;12012;51.998;7.614;2024-01-30T06:30:25;6.00;1.00
23671;DHT22;12012;51.998;7.614;2024-01-30T06:32:51;6.10;99.90
23671;DHT22;12012;51.998;7.614;2024-01-30T06:35:16;6.00;99.90
23671;DHT22;12012;51.998;7.614;2024-01-30T06:37:43;6.10;99.90
23671;DHT22;12012;51.998;7.614;2024-01-30T06:40:08;6.00;99.90
23671;DHT22;12012;51.998;7.614;2024-01-30T06:42:34;6.00;99.90
23671;DHT22;12012;51.998;7.614;2024-01-30T06:45:00;6.00;99.90
23671;DHT22;12012;51.998;7.614;2024-01-30T06:47:25;6.00;99.90
23671;DHT22;12012;51.998;7.614;2024-01-30T06:49:51;6.00;99.90
23671;DHT22;12012;51.998;7.614;2024-01-30T06:52:16;6.00;99.90
23671;DHT22;12012;51.998;7.614;2024-01-30T06:54:42;6.00;99.90
23671;DHT22;12012;51.998;7.614;2024-01-30T06:57:08;5.90;99.90
23671;DHT22;12012;51.998;7.614;2024-01-30T06:59:37;5.90;99.90
23671;DHT22;12012;51.998;7.614;2024-01-30T07:02:02;5.90;99.90
23671;DHT22;12012;51.998;7.614;2024-01-30T07:04:28;5.90;99.90
23671;DHT22;12012;51.998;7.614;2024-01-30T07:06:53;5.90;99.90
23671;DHT22;12012;51.998;7.614;2024-01-30T07:09:19;5.90;99.90
23671;DHT22;12012;51.998;7.614;2024-01-30T07:11:44;5.90;99.90
23671;DHT22;12012;51.998;7.614;2024-01-30T07:14:10;5.90;99.90
23671;DHT22;12012;51.998;7.614;2024-01-30T07:16:36;5.90;99.90
23671;DHT22;12012;51.998;7.614;2024-01-30T07:19:01;5.90;99.90
23671;DHT22;12012;51.998;7.614;2024-01-30T07:21:27;5.90;99.90
23671;DHT22;12012;51.998;7.614;2024-01-30T07:23:57;5.90;99.90
23671;DHT22;12012;51.998;7.614;2024-01-30T07:26:22;5.90;99.90
23671;DHT22;12012;51.998;7.614;2024-01-30T07:28:48;5.90;99.90
23671;DHT22;12012;51.998;7.614;2024-01-30T07:31:13;5.90;99.90
23671;DHT22;12012;51.998;7.614;2024-01-30T07:33:39;6.00;99.90
23671;DHT22;12012;51.998;7.614;2024-01-30T07:36:05;6.00;99.90
23671;DHT22;12012;51.998;7.614;2024-01-30T07:38:34;6.00;99.90
23671;DHT22;12012;51.998;7.614;2024-01-30T07:40:59;6.00;99.90
23671;DHT22;12012;51.998;7.614;2024-01-30T07:43:25;6.00;99.90
23671;DHT22;12012;51.998;7.614;2024-01-30T07:45:51;6.00;99.90
23671;DHT22;12012;51.998;7.614;2024-01-30T07:48:16;6.00;99.90
23671;DHT22;12012;51.998;7.614;2024-01-30T07:50:42;6.10;99.90
23671;DHT22;12012;51.998;7.614;2024-01-30T07:53:07;6.10;99.90
23671;DHT22;12012;51.998;7.614;2024-01-30T07:55:33;6.10;99.90
23671;DHT22;12012;51.998;7.614;2024-01-30T08:01:26;6.20;99.90
23671;DHT22;12012;51.998;7.614;2024-01-30T08:03:53;6.30;1.00
23671;DHT22;12012;51.998;7.614;2024-01-30T08:06:18;6.40;1.00
23671;DHT22;12012;51.998;7.614;2024-01-30T08:08:44;6.50;99.90
23671;DHT22;12012;51.998;7.614;2024-01-30T08:11:10;6.60;1.00
23671;DHT22;12012;51.998;7.614;2024-01-30T08:13:36;6.70;1.00
23671;DHT22;12012;51.998;7.614;2024-01-30T08:16:01;6.80;1.00
23671;DHT22;12012;51.998;7.614;2024-01-30T08:18:27;6.90;99.90
23671;DHT22;12012;51.998;7.614;2024-01-30T08:20:52;7.00;1.00
23671;DHT22;12012;51.998;7.614;2024-01-30T08:23:18;7.10;99.90
23671;DHT22;12012;51.998;7.614;2024-01-30T08:25:43;7.20;99.90
23671;DHT22;12012;51.998;7.614;2024-01-30T08:28:09;7.30;99.90
23671;DHT22;12012;51.998;7.614;2024-01-30T08:30:34;7.40;99.90
23671;DHT22;12012;51.998;7.614;2024-01-30T08:33:00;7.50;99.90
23671;DHT22;12012;51.998;7.614;2024-01-30T08:35:26;7.50;99.90
23671;DHT22;12012;51.998;7.614;2024-01-30T08:37:52;7.60;99.90
23671;DHT22;12012;51.998;7.614;2024-01-30T08:40:17;7.70;99.90
23671;DHT22;12012;51.998;7.614;2024-01-30T08:42:43;7.80;99.90
23671;DHT22;12012;51.998;7.614;2024-01-30T08:45:09;7.80;99.90
23671;DHT22;12012;51.998;7.614;2024-01-30T08:47:34;8.00;99.90
23671;DHT22;12012;51.998;7.614;2024-01-30T08:50:00;8.00;99.90
23671;DHT22;12012;51.998;7.614;2024-01-30T08:52:26;8.10;99.90
23671;DHT22;12012;51.998;7.614;2024-01-30T08:54:51;8.20;99.90
23671;DHT22;12012;51.998;7.614;2024-01-30T08:57:17;8.30;99.90
23671;DHT22;12012;51.998;7.614;2024-01-30T08:59:42;8.40;99.90
23671;DHT22;12012;51.998;7.614;2024-01-30T09:02:11;8.50;99.90
23671;DHT22;12012;51.998;7.614;2024-01-30T09:04:38;8.70;99.90
23671;DHT22;12012;51.998;7.614;2024-01-30T09:07:04;8.80;99.90
23671;DHT22;12012;51.998;7.614;2024-01-30T09:09:33;8.90;99.90
23671;DHT22;12012;51.998;7.614;2024-01-30T09:11:59;8.90;99.90
23671;DHT22;12012;51.998;7.614;2024-01-30T09:14:29;9.20;99.90
23671;DHT22;12012;51.998;7.614;2024-01-30T09:16:56;9.10;99.90
23671;DHT22;12012;51.998;7.614;2024-01-30T09:19:21;9.20;99.90
23671;DHT22;12012;51.998;7.614;2024-01-30T09:21:47;9.20;99.90
23671;DHT22;12012;51.998;7.614;2024-01-30T09:24:12;9.30;99.90
23671;DHT22;12012;51.998;7.614;2024-01-30T09:26:38;9.40;99.90
23671;DHT22;12012;51.998;7.614;2024-01-30T09:29:03;9.40;99.90
23671;DHT22;12012;51.998;7.614;2024-01-30T09:31:29;9.40;99.90
23671;DHT22;12012;51.998;7.614;2024-01-30T09:33:54;9.50;99.90
23671;DHT22;12012;51.998;7.614;2024-01-30T09:36:20;9.60;99.90
23671;DHT22;12012;51.998;7.614;2024-01-30T09:38:46;9.60;99.90
23671;DHT22;12012;51.998;7.614;2024-01-30T09:41:12;9.60;99.90
23671;DHT22;12012;51.998;7.614;2024-01-30T09:43:39;9.70;99.90
23671;DHT22;12012;51.998;7.614;2024-01-30T09:46:11;9.70;99.90
23671;DHT22;12012;51.998;7.614;2024-01-30T09:48:39;9.80;99.90
23671;DHT22;12012;51.998;7.614;2024-01-30T09:51:07;9.80;99.90
23671;DHT22;12012;51.998;7.614;2024-01-30T09:53:33;9.80;99.90
23671;DHT22;12012;51.998;7.614;2024-01-30T09:55:58;9.90;99.90
23671;DHT22;12012;51.998;7.614;2024-01-30T09:58:24;9.90;99.90
23671;DHT22;12012;51.998;7.614;2024-01-30T10:00:50;9.90;99.90
23671;DHT22;12012;51.998;7.614;2024-01-30T10:03:15;9.90;99.90
23671;DHT22;12012;51.998;7.614;2024-01-30T10:05:41;9.90;99.90
23671;DHT22;12012;51.998;7.614;2024-01-30T10:08:11;9.90;99.90
23671;DHT22;12012;51.998;7.614;2024-01-30T10:10:36;9.90;99.90
23671;DHT22;12012;51.998;7.614;2024-01-30T10:13:02;9.90;99.90
23671;DHT22;12012;51.998;7.614;2024-01-30T10:15:28;9.90;99.90
23671;DHT22;12012;51.998;7.614;2024-01-30T10:17:54;9.90;99.90
23671;DHT22;12012;51.998;7.614;2024-01-30T10:20:20;10.00;99.90
23671;DHT22;12012;51.998;7.614;2024-01-30T10:22:47;10.00;99.90
23671;DHT22;12012;51.998;7.614;2024-01-30T10:25:13;10.00;99.90
23671;DHT22;12012;51.998;7.614;2024-01-30T10:27:41;10.00;99.90
23671;DHT22;12012;51.998;7.614;2024-01-30T10:30:08;10.00;99.90
23671;DHT22;12012;51.998;7.614;2024-01-30T10:32:33;10.10;99.90
23671;DHT22;12012;51.998;7.614;2024-01-30T10:34:59;10.10;99.90
23671;DHT22;12012;51.998;7.614;2024-01-30T10:37:25;10.10;99.90
23671;DHT22;12012;51.998;7.614;2024-01-30T10:39:53;10.20;99.90
23671;DHT22;12012;51.998;7.614;2024-01-30T10:42:25;10.20;99.90
23671;DHT22;12012;51.998;7.614;2024-01-30T10:45:11;10.30;99.90
23671;DHT22;12012;51.998;7.614;2024-01-30T10:47:50;10.40;99.90
23671;DHT22;12012;51.998;7.614;2024-01-30T10:50:16;10.40;99.90
23671;DHT22;12012;51.998;7.614;2024-01-30T10:52:42;10.50;99.90
23671;DHT22;12012;51.998;7.614;2024-01-30T10:55:10;10.70;77.30
23671;DHT22;12012;51.998;7.614;2024-01-30T10:57:36;10.80;31.90
23671;DHT22;12012;51.998;7.614;2024-01-30T11:00:04;10.90;1.00
23671;DHT22;12012;51.998;7.614;2024-01-30T11:02:32;11.10;1.00
23671;DHT22;12012;51.998;7.614;2024-01-30T11:04:59;11.20;1.00
23671;DHT22;12012;51.998;7.614;2024-01-30T11:07:29;11.40;1.00
23671;DHT22;12012;51.998;7.614;2024-01-30T11:12:24;11.80;1.00
23671;DHT22;12012;51.998;7.614;2024-01-30T11:15:10;12.30;99.90
23671;DHT22;12012;51.998;7.614;2024-01-30T11:17:47;13.00;99.90
23671;DHT22;12012;51.998;7.614;2024-01-30T11:20:27;13.90;99.90
23671;DHT22;12012;51.998;7.614;2024-01-30T11:22:56;14.50;99.90
23671;DHT22;12012;51.998;7.614;2024-01-30T11:25:23;15.00;99.90
23671;DHT22;12012;51.998;7.614;2024-01-30T11:27:53;15.90;99.90
23671;DHT22;12012;51.998;7.614;2024-01-30T11:30:26;16.50;99.00
23671;DHT22;12012;51.998;7.614;2024-01-30T11:35:39;16.40;63.90
23671;DHT22;12012;51.998;7.614;2024-01-30T11:38:06;15.70;74.60
23671;DHT22;12012;51.998;7.614;2024-01-30T11:40:33;15.20;95.40
23671;DHT22;12012;51.998;7.614;2024-01-30T11:43:00;14.90;99.90
23671;DHT22;12012;51.998;7.614;2024-01-30T11:45:29;14.50;99.90
23671;DHT22;12012;51.998;7.614;2024-01-30T11:47:55;14.20;99.90
23671;DHT22;12012;51.998;7.614;2024-01-30T11:50:21;14.10;99.90
23671;DHT22;12012;51.998;7.614;2024-01-30T11:52:47;14.00;99.90
23671;DHT22;12012;51.998;7.614;2024-01-30T11:55:14;13.90;99.90
23671;DHT22;12012;51.998;7.614;2024-01-30T11:57:40;13.80;99.90
23671;DHT22;12012;51.998;7.614;2024-01-30T12:00:06;13.70;99.90
23671;DHT22;12012;51.998;7.614;2024-01-30T12:02:42;13.70;99.90
23671;DHT22;12012;51.998;7.614;2024-01-30T12:05:08;13.70;99.90
23671;DHT22;12012;51.998;7.614;2024-01-30T12:07:37;13.60;99.90
23671;DHT22;12012;51.998;7.614;2024-01-30T12:10:03;13.60;99.90
23671;DHT22;12012;51.998;7.614;2024-01-30T12:12:29;13.50;99.90
23671;DHT22;12012;51.998;7.614;2024-01-30T12:14:55;13.40;99.90
23671;DHT22;12012;51.998;7.614;2024-01-30T12:17:39;13.40;99.90
23671;DHT22;12012;51.998;7.614;2024-01-30T12:20:13;13.30;99.90
23671;DHT22;12012;51.998;7.614;2024-01-30T12:22:43;13.20;99.90
23671;DHT22;12012;51.998;7.614;2024-01-30T12:25:14;13.20;99.90
23671;DHT22;12012;51.998;7.614;2024-01-30T12:27:43;13.20;99.90
23671;DHT22;12012;51.998;7.614;2024-01-30T12:30:13;13.10;99.90
23671;DHT22;12012;51.998;7.614;2024-01-30T12:32:44;13.10;99.90
23671;DHT22;12012;51.998;7.614;2024-01-30T12:35:14;13.00;99.90
23671;DHT22;12012;51.998;7.614;2024-01-30T12:37:40;13.00;99.90
23671;DHT22;12012;51.998;7.614;2024-01-30T12:40:10;13.10;99.90
23671;DHT22;12012;51.998;7.614;2024-01-30T12:42:37;12.90;99.90
23671;DHT22;12012;51.998;7.614;2024-01-30T12:45:03;12.90;99.90
23671;DHT22;12012;51.998;7.614;2024-01-30T12:47:30;12.90;99.90
23671;DHT22;12012;51.998;7.614;2024-01-30T12:49:55;12.80;99.90
23671;DHT22;12012;51.998;7.614;2024-01-30T12:52:22;12.80;99.90
23671;DHT22;12012;51.998;7.614;2024-01-30T12:54:48;12.70;99.90
23671;DHT22;12012;51.998;7.614;2024-01-30T12:57:14;12.70;99.90
23671;DHT22;12012;51.998;7.614;2024-01-30T12:59:40;12.60;99.90
23671;DHT22;12012;51.998;7.614;2024-01-30T13:02:06;12.60;99.90
23671;DHT22;12012;51.998;7.614;2024-01-30T13:04:32;12.50;1.00
23671;DHT22;12012;51.998;7.614;2024-01-30T13:06:58;12.50;1.00
23671;DHT22;12012;51.998;7.614;2024-01-30T13:09:24;12.50;1.00
23671;DHT22;12012;51.998;7.614;2024-01-30T13:11:50;12.50;1.00
23671;DHT22;12012;51.998;7.614;2024-01-30T13:14:16;12.50;1.00
23671;DHT22;12012;51.998;7.614;2024-01-30T13:16:42;13.00;1.00
23671;DHT22;12012;51.998;7.614;2024-01-30T13:19:08;12.60;1.00
23671;DHT22;12012;51.998;7.614;2024-01-30T13:21:33;12.70;1.00
23671;DHT22;12012;51.998;7.614;2024-01-30T13:23:59;12.70;1.00
23671;DHT22;12012;51.998;7.614;2024-01-30T13:26:25;12.80;1.00
23671;DHT22;12012;51.998;7.614;2024-01-30T13:28:51;12.80;1.00
23671;DHT22;12012;51.998;7.614;2024-01-30T13:31:17;12.80;1.00
23671;DHT22;12012;51.998;7.614;2024-01-30T13:33:43;12.80;1.00
23671;DHT22;12012;51.998;7.614;2024-01-30T13:36:10;12.80;1.00
23671;DHT22;12012;51.998;7.614;2024-01-30T13:38:36;12.80;1.00
23671;DHT22;12012;51.998;7.614;2024-01-30T13:41:02;12.80;1.00
23671;DHT22;12012;51.998;7.614;2024-01-30T13:43:28;12.80;1.00
23671;DHT22;12012;51.998;7.614;2024-01-30T13:45:53;12.70;1.00
23671;DHT22;12012;51.998;7.614;2024-01-30T13:48:19;12.70;1.00
23671;DHT22;12012;51.998;7.614;2024-01-30T13:50:45;12.70;1.00
23671;DHT22;12012;51.998;7.614;2024-01-30T13:53:11;12.60;1.00
23671;DHT22;12012;51.998;7.614;2024-01-30T13:55:37;12.60;1.00
23671;DHT22;12012;51.998;7.614;2024-01-30T13:58:04;12.60;1.00
23671;DHT22;12012;51.998;7.614;2024-01-30T14:00:30;12.50;1.00
23671;DHT22;12012;51.998;7.614;2024-01-30T14:02:55;12.50;1.00
23671;DHT22;12012;51.998;7.614;2024-01-30T14:05:22;12.50;1.00
23671;DHT22;12012;51.998;7.614;2024-01-30T14:07:48;12.50;1.00
23671;DHT22;12012;51.998;7.614;2024-01-30T14:10:15;12.50;99.90
23671;DHT22;12012;51.998;7.614;2024-01-30T14:12:42;12.50;99.90
23671;DHT22;12012;51.998;7.614;2024-01-30T14:15:09;12.40;99.90
23671;DHT22;12012;51.998;7.614;2024-01-30T14:17:35;12.40;99.90
23671;DHT22;12012;51.998;7.614;2024-01-30T14:20:02;12.50;99.90
23671;DHT22;12012;51.998;7.614;2024-01-30T14:22:28;12.40;99.90
23671;DHT22;12012;51.998;7.614;2024-01-30T14:24:54;12.40;99.90
23671;DHT22;12012;51.998;7.614;2024-01-30T14:27:19;12.40;99.90
23671;DHT22;12012;51.998;7.614;2024-01-30T14:29:45;12.40;99.90
23671;DHT22;12012;51.998;7.614;2024-01-30T14:32:11;12.70;99.90
23671;DHT22;12012;51.998;7.614;2024-01-30T14:34:36;12.90;99.90
23671;DHT22;12012;51.998;7.614;2024-01-30T14:37:02;12.90;99.90
23671;DHT22;12012;51.998;7.614;2024-01-30T14:39:28;12.80;99.90
23671;DHT22;12012;51.998;7.614;2024-01-30T14:41:53;12.80;99.90
23671;DHT22;12012;51.998;7.614;2024-01-30T14:44:19;12.80;99.90
23671;DHT22;12012;51.998;7.614;2024-01-30T14:46:44;12.80;99.90
23671;DHT22;12012;51.998;7.614;2024-01-30T14:49:10;13.00;99.90
23671;DHT22;12012;51.998;7.614;2024-01-30T14:51:36;13.70;99.90
23671;DHT22;12012;51.998;7.614;2024-01-30T14:54:01;14.70;99.90
23671;DHT22;12012;51.998;7.614;2024-01-30T14:56:27;15.50;99.90
23671;DHT22;12012;51.998;7.614;2024-01-30T14:58:53;15.90;91.50
23671;DHT22;12012;51.998;7.614;2024-01-30T15:01:18;15.40;75.50
23671;DHT22;12012;51.998;7.614;2024-01-30T15:03:44;15.40;71.90
23671;DHT22;12012;51.998;7.614;2024-01-30T15:06:12;14.80;82.20
23671;DHT22;12012;51.998;7.614;2024-01-30T15:08:38;14.40;99.90
23671;DHT22;12012;51.998;7.614;2024-01-30T15:11:04;14.20;99.90
23671;DHT22;12012;51.998;7.614;2024-01-30T15:13:30;14.40;99.90
23671;DHT22;12012;51.998;7.614;2024-01-30T15:15:56;14.20;99.90
23671;DHT22;12012;51.998;7.614;2024-01-30T15:18:21;13.90;99.90
23671;DHT22;12012;51.998;7.614;2024-01-30T15:20:47;13.70;99.90
23671;DHT22;12012;51.998;7.614;2024-01-30T15:23:12;13.40;99.90
23671;DHT22;12012;51.998;7.614;2024-01-30T15:25:38;13.10;99.90
23671;DHT22;12012;51.998;7.614;2024-01-30T15:28:03;12.90;99.90
23671;DHT22;12012;51.998;7.614;2024-01-30T15:30:29;12.70;99.90
23671;DHT22;12012;51.998;7.614;2024-01-30T15:32:55;12.60;99.90
23671;DHT22;12012;51.998;7.614;2024-01-30T15:35:20;12.50;99.90
23671;DHT22;12012;51.998;7.614;2024-01-30T15:37:46;12.40;99.90
23671;DHT22;12012;51.998;7.614;2024-01-30T15:40:12;12.30;99.90
23671;DHT22;12012;51.998;7.614;2024-01-30T15:42:37;12.20;99.90
23671;DHT22;12012;51.998;7.614;2024-01-30T15:45:03;12.10;99.90
23671;DHT22;12012;51.998;7.614;2024-01-30T15:47:29;12.00;99.90